createdAt,value
2023-04-20T00:02:54.902Z,38.72
2023-04-20T00:08:13.788Z,38.62
2023-04-20T00:13:06.185Z,38.75
2023-04-20T00:18:06.235Z,38.79
2023-04-20T00:23:06.047Z,38.79
2023-04-20T00:28:05.972Z,38.78
2023-04-20T00:33:05.944Z,38.80
2023-04-20T00:38:05.855Z,38.83
2023-04-20T00:43:05.798Z,38.83
2023-04-20T00:48:05.739Z,38.78
2023-04-20T00:53:05.651Z,38.71
2023-04-20T00:58:05.586Z,38.68
2023-04-20T01:03:05.635Z,38.77
2023-04-20T01:08:05.422Z,39.00
2023-04-20T01:13:05.418Z,39.24
2023-04-20T01:18:05.446Z,39.46
2023-04-20T01:23:05.260Z,39.62
2023-04-20T01:28:05.235Z,39.85
2023-04-20T01:33:05.169Z,39.96
2023-04-20T01:38:05.077Z,40.03
2023-04-20T01:43:04.971Z,40.07
2023-04-20T01:48:05.011Z,40.16
2023-04-20T01:53:04.866Z,40.25
2023-04-20T01:58:04.843Z,40.25
2023-04-20T02:03:04.859Z,40.51
2023-04-20T02:08:04.678Z,40.78
2023-04-20T02:13:04.599Z,41.42
2023-04-20T02:18:04.584Z,42.12
2023-04-20T02:23:04.473Z,42.69
2023-04-20T02:28:04.419Z,43.82
2023-04-20T02:33:04.348Z,45.15
2023-04-20T02:38:04.280Z,45.18
2023-04-20T02:43:04.202Z,45.19
2023-04-20T02:48:04.198Z,45.30
2023-04-20T02:53:04.043Z,45.39
2023-04-20T02:58:04.000Z,45.50
2023-04-20T03:03:04.063Z,45.50
2023-04-20T03:08:03.909Z,45.58
2023-04-20T03:13:03.819Z,45.61
2023-04-20T03:18:03.807Z,45.69
2023-04-20T03:23:03.731Z,45.81
2023-04-20T03:28:03.647Z,45.96
2023-04-20T03:33:03.539Z,46.15
2023-04-20T03:38:03.525Z,46.30
2023-04-20T03:43:03.404Z,46.69
2023-04-20T03:48:03.407Z,46.94
2023-04-20T03:53:03.620Z,47.04
2023-04-20T03:58:03.220Z,47.15
2023-04-20T04:03:03.320Z,47.25
2023-04-20T04:08:03.105Z,47.54
2023-04-20T04:13:03.003Z,47.74
2023-04-20T04:18:17.470Z,47.70
2023-04-20T04:23:09.874Z,48.13
2023-04-20T04:28:09.821Z,48.48
2023-04-20T04:33:09.754Z,48.81
2023-04-20T04:38:09.683Z,48.98
2023-04-20T04:43:09.662Z,49.17
2023-04-20T04:48:09.602Z,49.31
2023-04-20T04:53:09.496Z,49.47
2023-04-20T04:58:09.439Z,49.56
2023-04-20T05:03:09.450Z,49.83
2023-04-20T05:08:09.265Z,49.87
2023-04-20T05:13:09.225Z,49.95
2023-04-20T05:18:09.218Z,50.04
2023-04-20T05:23:09.104Z,50.09
2023-04-20T05:28:09.037Z,50.16
2023-04-20T05:33:08.988Z,50.28
2023-04-20T05:38:08.884Z,50.38
2023-04-20T05:43:08.809Z,50.54
2023-04-20T05:48:08.742Z,50.58
2023-04-20T05:53:08.688Z,50.53
2023-04-20T05:58:08.603Z,50.51
2023-04-20T06:03:08.744Z,50.41
2023-04-20T06:08:08.458Z,50.29
2023-04-20T06:13:08.402Z,50.30
2023-04-20T06:18:08.394Z,50.19
2023-04-20T06:23:08.313Z,50.01
2023-04-20T06:28:08.205Z,49.22
2023-04-20T06:33:09.199Z,49.14
2023-04-20T06:38:08.232Z,48.95
2023-04-20T06:43:08.043Z,48.86
2023-04-20T06:48:17.162Z,48.77
2023-04-20T06:53:08.917Z,49.46
2023-04-20T06:58:07.816Z,49.81
2023-04-20T07:03:07.956Z,50.26
2023-04-20T07:08:07.678Z,50.59
2023-04-20T07:13:07.622Z,51.00
2023-04-20T07:18:07.607Z,51.40
2023-04-20T07:23:07.525Z,51.66
2023-04-20T07:28:07.413Z,51.72
2023-04-20T07:33:07.471Z,51.65
2023-04-20T07:38:07.310Z,51.51
2023-04-20T07:43:07.254Z,51.50
2023-04-20T07:48:07.254Z,51.58
2023-04-20T07:53:07.222Z,51.53
2023-04-20T07:58:07.192Z,51.55
2023-04-20T08:03:07.152Z,51.78
2023-04-20T08:08:06.946Z,52.12
2023-04-20T08:13:06.885Z,52.35
2023-04-20T08:18:06.836Z,52.54
2023-04-20T08:23:06.753Z,52.74
2023-04-20T08:28:11.759Z,52.71
2023-04-20T08:33:07.603Z,52.35
2023-04-20T08:38:06.510Z,51.81
2023-04-20T08:43:06.488Z,51.31
2023-04-20T08:48:06.458Z,49.72
2023-04-20T08:53:06.311Z,48.12
2023-04-20T08:58:06.220Z,47.62
2023-04-20T09:03:06.381Z,45.21
2023-04-20T09:08:06.094Z,42.40
2023-04-20T09:13:06.134Z,42.30
2023-04-20T09:18:06.019Z,43.64
2023-04-20T09:23:05.982Z,45.17
2023-04-20T09:28:05.836Z,44.42
2023-04-20T09:33:05.806Z,43.01
2023-04-20T09:38:05.688Z,44.18
2023-04-20T09:43:05.621Z,43.14
2023-04-20T09:48:05.629Z,44.61
2023-04-20T09:53:05.567Z,45.98
2023-04-20T09:58:05.480Z,46.60
2023-04-20T10:03:05.496Z,47.32
2023-04-20T10:08:05.375Z,46.82
2023-04-20T10:13:05.275Z,46.58
2023-04-20T10:18:05.224Z,46.95
2023-04-20T10:23:05.159Z,48.29
2023-04-20T10:28:05.130Z,48.48
2023-04-20T10:33:05.055Z,48.21
2023-04-20T10:38:04.898Z,47.52
2023-04-20T10:43:04.890Z,46.79
2023-04-20T10:48:04.813Z,47.27
2023-04-20T10:53:04.743Z,47.70
2023-04-20T10:58:04.636Z,47.54
2023-04-20T11:03:04.717Z,46.60
2023-04-20T11:08:04.582Z,44.51
2023-04-20T11:13:04.461Z,43.35
2023-04-20T11:18:04.426Z,43.36
2023-04-20T11:23:04.405Z,43.04
2023-04-20T11:28:04.279Z,41.41
2023-04-20T11:33:04.271Z,38.83
2023-04-20T11:38:04.132Z,38.26
2023-04-20T11:43:04.082Z,39.64
2023-04-20T11:48:04.032Z,39.89
2023-04-20T11:53:03.922Z,39.00
2023-04-20T11:58:03.832Z,40.15
2023-04-20T12:03:03.897Z,40.68
2023-04-20T12:08:03.727Z,42.11
2023-04-20T12:13:03.657Z,36.29
2023-04-20T12:18:03.635Z,32.97
2023-04-20T12:23:03.566Z,35.34
2023-04-20T12:28:03.456Z,38.09
2023-04-20T12:33:03.403Z,38.62
2023-04-20T12:38:03.330Z,38.41
2023-04-20T12:43:03.309Z,38.40
2023-04-20T12:48:03.254Z,38.61
2023-04-20T12:53:03.132Z,38.68
2023-04-20T12:58:03.083Z,38.95
2023-04-20T13:03:03.183Z,36.19
2023-04-20T13:08:02.931Z,34.84
2023-04-20T13:13:02.872Z,35.48
2023-04-20T13:18:02.753Z,38.44
2023-04-20T13:23:02.745Z,39.25
2023-04-20T13:28:02.646Z,39.74
2023-04-20T13:33:02.635Z,39.33
2023-04-20T13:38:02.541Z,40.70
2023-04-20T13:43:02.461Z,42.15
2023-04-20T13:48:02.387Z,43.87
2023-04-20T13:53:02.336Z,44.19
2023-04-20T13:58:02.318Z,44.10
2023-04-20T14:03:02.571Z,43.57
2023-04-20T14:08:02.120Z,42.95
2023-04-20T14:13:02.079Z,41.95
2023-04-20T14:18:02.014Z,41.75
2023-04-20T14:23:01.943Z,42.96
2023-04-20T14:28:01.894Z,43.56
2023-04-20T14:33:01.848Z,44.02
2023-04-20T14:38:01.771Z,43.57
2023-04-20T14:43:01.825Z,41.80
2023-04-20T14:48:01.626Z,41.06
2023-04-20T14:53:01.545Z,40.30
2023-04-20T14:58:01.462Z,39.41
2023-04-20T15:03:01.669Z,39.69
2023-04-20T15:08:01.336Z,40.73
2023-04-20T15:13:01.274Z,41.89
2023-04-20T15:18:01.256Z,41.36
2023-04-20T15:23:01.137Z,43.29
2023-04-20T15:28:01.099Z,44.88
2023-04-20T15:33:05.324Z,46.40
2023-04-20T15:38:00.986Z,46.53
2023-04-20T15:43:00.865Z,45.87
2023-04-20T15:48:01.100Z,45.47
2023-04-20T15:53:00.888Z,45.37
2023-04-20T15:58:00.725Z,45.64
2023-04-20T16:03:00.798Z,46.32
2023-04-20T16:08:00.561Z,46.76
2023-04-20T16:13:00.510Z,46.96
2023-04-20T16:18:00.482Z,47.31
2023-04-20T16:23:00.346Z,47.92
2023-04-20T16:28:00.328Z,48.13
2023-04-20T16:33:00.401Z,48.25
2023-04-20T16:38:00.144Z,48.74
2023-04-20T16:43:00.053Z,48.95
2023-04-20T16:48:00.104Z,48.91
2023-04-20T16:52:59.993Z,48.35
2023-04-20T16:57:59.910Z,48.09
2023-04-20T17:02:59.914Z,48.03
2023-04-20T17:07:59.746Z,48.08
2023-04-20T17:12:59.696Z,48.22
2023-04-20T17:17:59.663Z,48.30
2023-04-20T17:22:59.616Z,48.54
2023-04-20T17:27:59.540Z,49.03
2023-04-20T17:32:59.435Z,49.73
2023-04-20T17:37:59.399Z,50.04
2023-04-20T17:42:59.250Z,50.45
2023-04-20T17:47:59.279Z,50.99
2023-04-20T17:52:59.138Z,51.47
2023-04-20T17:57:59.104Z,51.71
2023-04-20T18:02:59.206Z,51.58
2023-04-20T18:07:59.438Z,52.12
2023-04-20T18:12:58.919Z,52.41
2023-04-20T18:17:58.901Z,52.95
2023-04-20T18:22:58.773Z,53.45
2023-04-20T18:27:58.749Z,53.68
2023-04-20T18:32:58.714Z,54.09
2023-04-20T18:37:58.721Z,54.34
2023-04-20T18:42:58.580Z,54.68
2023-04-20T18:47:58.499Z,54.76
2023-04-20T18:52:58.411Z,54.92
2023-04-20T18:57:58.328Z,54.91
2023-04-20T19:02:58.500Z,55.23
2023-04-20T19:07:58.297Z,55.25
2023-04-20T19:12:58.086Z,55.34
2023-04-20T19:17:58.088Z,55.36
2023-04-20T19:22:57.957Z,55.42
2023-04-20T19:27:57.902Z,55.53
2023-04-20T19:32:57.862Z,55.69
2023-04-20T19:37:57.789Z,55.73
2023-04-20T19:42:57.717Z,55.86
2023-04-20T19:47:57.722Z,56.07
2023-04-20T19:52:57.590Z,56.12
2023-04-20T19:57:57.517Z,56.22
2023-04-20T20:02:57.668Z,56.63
2023-04-20T20:07:57.369Z,57.05
2023-04-20T20:12:57.281Z,57.86
2023-04-20T20:17:57.297Z,58.11
2023-04-20T20:22:57.239Z,58.37
2023-04-20T20:27:57.115Z,59.03
2023-04-20T20:32:57.056Z,59.51
2023-04-20T20:37:56.980Z,59.62
2023-04-20T20:42:56.879Z,59.57
2023-04-20T20:47:57.541Z,60.15
2023-04-20T20:52:56.767Z,60.18
2023-04-20T20:57:56.729Z,60.27
2023-04-20T21:02:56.699Z,60.34
2023-04-20T21:07:56.580Z,60.31
2023-04-20T21:12:56.523Z,60.09
2023-04-20T21:17:56.460Z,59.98
2023-04-20T21:22:56.401Z,60.02
2023-04-20T21:27:56.299Z,60.15
2023-04-20T21:32:56.259Z,60.37
2023-04-20T21:37:56.181Z,60.33
2023-04-20T21:42:56.114Z,60.24
2023-04-20T21:47:56.121Z,60.51
2023-04-20T21:52:55.982Z,60.43
2023-04-20T21:57:55.918Z,60.29
2023-04-20T22:02:56.002Z,60.35
2023-04-20T22:07:55.762Z,60.22
2023-04-20T22:12:55.706Z,60.15
2023-04-20T22:17:55.697Z,60.18
2023-04-20T22:22:55.575Z,60.18
2023-04-20T22:27:55.522Z,60.51
2023-04-20T22:32:55.471Z,60.64
2023-04-20T22:37:55.430Z,60.66
2023-04-20T22:42:55.315Z,60.84
2023-04-20T22:47:55.286Z,60.83
2023-04-20T22:52:55.173Z,60.91
2023-04-20T22:57:55.119Z,60.90
2023-04-20T23:02:55.195Z,60.88
2023-04-20T23:07:54.951Z,60.81
2023-04-20T23:12:54.943Z,60.89
2023-04-20T23:17:54.879Z,60.86
2023-04-20T23:22:54.821Z,60.89
2023-04-20T23:27:54.710Z,60.88
2023-04-20T23:32:54.705Z,60.85
2023-04-20T23:37:54.554Z,60.83
2023-04-20T23:42:54.553Z,60.79
2023-04-20T23:47:54.504Z,60.75
2023-04-20T23:52:54.395Z,60.77
2023-04-20T23:57:54.312Z,60.78
